Time;durP1;ratioP1;P1;durP2;ratioP2;P2;SDS_P1;SDS_P2;PMS_P1;PMS_P2;Temp;Humidity;BMP_temperature;BMP_pressure;BME280_temperature;BME280_humidity;BME280_pressure;Samples;Min_cycle;Max_cycle;Signal;HPM_P1;HPM_P2
2022/03/22 00:00:57;;;;;;;6.40;5.67;;;11.10;99.90;;;;;;5067122;28;20811;-59
2022/03/22 00:03:29;;;;;;;6.97;5.57;;;11.20;99.90;;;;;;5061431;28;20516;-60
2022/03/22 00:06:00;;;;;;;6.60;5.63;;;11.20;99.90;;;;;;5061945;28;21013;-60
2022/03/22 00:08:31;;;;;;;6.30;5.77;;;11.30;99.90;;;;;;5062192;28;20559;-59
2022/03/22 00:11:02;;;;;;;5.97;5.30;;;11.30;99.90;;;;;;5062042;28;20456;-60
2022/03/22 00:13:33;;;;;;;5.23;4.83;;;11.30;99.90;;;;;;5049809;28;20466;-60
2022/03/22 00:16:07;;;;;;;5.60;4.90;;;11.30;99.90;;;;;;5061529;28;20451;-59
2022/03/22 00:18:58;;;;;;;5.57;5.17;;;11.30;99.90;;;;;;5062039;28;20575;-60
2022/03/22 00:21:29;;;;;;;4.80;4.40;;;11.30;99.90;;;;;;5061428;28;20567;-60
2022/03/22 00:23:59;;;;;;;4.27;3.97;;;11.30;99.90;;;;;;5060770;28;20452;-60
2022/03/22 00:26:30;;;;;;;4.90;4.53;;;11.30;99.90;;;;;;5067521;28;20948;-61
2022/03/22 00:29:03;;;;;;;5.13;4.30;;;11.40;99.90;;;;;;5057625;28;20594;-61
2022/03/22 00:31:35;;;;;;;6.03;5.17;;;11.40;99.90;;;;;;5062085;28;20559;-59
2022/03/22 00:34:06;;;;;;;6.77;5.63;;;11.40;99.90;;;;;;5057407;28;20460;-59
2022/03/22 00:36:37;;;;;;;5.80;5.30;;;11.40;99.90;;;;;;5054523;28;20456;-59
2022/03/22 00:39:08;;;;;;;4.87;4.47;;;11.30;99.90;;;;;;5059837;28;20459;-60
2022/03/22 00:41:39;;;;;;;5.37;4.97;;;11.30;99.90;;;;;;5061709;28;20833;-60
2022/03/22 00:44:10;;;;;;;4.73;4.33;;;11.30;99.90;;;;;;5061178;28;20483;-60
2022/03/22 00:46:42;;;;;;;5.40;4.90;;;11.40;99.90;;;;;;5056643;28;20440;-60
2022/03/22 00:49:13;;;;;;;5.63;5.20;;;11.40;99.90;;;;;;5061987;28;20488;-62
2022/03/22 00:51:44;;;;;;;5.53;5.03;;;11.50;99.90;;;;;;5061128;28;20562;-63
2022/03/22 00:54:15;;;;;;;5.50;5.10;;;11.50;99.90;;;;;;5060292;28;20448;-62
2022/03/22 00:56:45;;;;;;;5.67;5.27;;;11.50;99.90;;;;;;5061472;28;20449;-63
2022/03/22 01:02:06;;;;;;;5.70;5.20;;;11.50;99.90;;;;;;5061420;28;20432;-62
2022/03/22 01:04:37;;;;;;;5.70;5.20;;;11.40;99.90;;;;;;5060380;28;20475;-62
2022/03/22 01:07:08;;;;;;;6.40;4.83;;;11.40;99.90;;;;;;5060757;28;20463;-61
2022/03/22 01:09:38;;;;;;;5.07;4.67;;;11.40;99.90;;;;;;5063046;28;20490;-60
2022/03/22 01:12:10;;;;;;;4.53;4.23;;;11.30;99.90;;;;;;5061552;28;20859;-62
2022/03/22 01:14:41;;;;;;;5.60;5.00;;;11.40;99.90;;;;;;5061091;28;20455;-64
2022/03/22 01:17:13;;;;;;;5.70;5.23;;;11.40;99.90;;;;;;5061591;28;20491;-63
2022/03/22 01:19:44;;;;;;;4.93;4.53;;;11.40;99.90;;;;;;5061502;28;20456;-64
2022/03/22 01:22:17;;;;;;;5.40;4.97;;;11.40;99.90;;;;;;5061360;28;20472;-64
2022/03/22 01:24:52;;;;;;;4.50;4.20;;;11.30;99.90;;;;;;5061476;28;20448;-60
2022/03/22 01:27:23;;;;;;;5.57;5.03;;;11.30;99.90;;;;;;5060002;28;20788;-59
2022/03/22 01:29:53;;;;;;;4.63;4.30;;;11.40;99.90;;;;;;5061461;28;20551;-61
2022/03/22 01:32:26;;;;;;;4.70;4.30;;;11.40;99.90;;;;;;5061573;28;20449;-61
2022/03/22 01:34:56;;;;;;;4.83;4.43;;;11.40;99.90;;;;;;5061310;28;20456;-60
2022/03/22 01:37:27;;;;;;;5.37;4.90;;;11.40;99.90;;;;;;5061129;28;20581;-60
2022/03/22 01:39:59;;;;;;;6.60;5.93;;;11.40;99.90;;;;;;5059478;28;20490;-60
2022/03/22 01:42:29;;;;;;;6.07;5.60;;;11.40;99.90;;;;;;5058139;28;20449;-60
2022/03/22 01:45:02;;;;;;;4.90;4.50;;;11.30;99.90;;;;;;5061106;28;20449;-60
2022/03/22 01:47:35;;;;;;;7.03;5.60;;;11.30;99.90;;;;;;5061476;28;20508;-60
2022/03/22 01:50:07;;;;;;;6.50;6.00;;;11.40;99.90;;;;;;5061304;28;20484;-59
2022/03/22 01:52:40;;;;;;;5.83;5.40;;;11.40;99.90;;;;;;5058784;28;20456;-59
2022/03/22 01:55:12;;;;;;;5.80;5.10;;;11.40;99.90;;;;;;5046802;28;20768;-59
2022/03/22 01:57:44;;;;;;;5.20;4.77;;;11.30;99.90;;;;;;5060011;28;20445;-58
2022/03/22 02:00:17;;;;;;;5.47;4.97;;;11.30;99.90;;;;;;5061357;28;20470;-60
2022/03/22 02:05:55;;;;;;;5.23;4.70;;;11.30;99.90;;;;;;5060265;28;20894;-59
2022/03/22 02:08:29;;;;;;;4.53;4.23;;;11.30;99.90;;;;;;5059391;28;20488;-60
2022/03/22 02:11:00;;;;;;;5.43;4.93;;;11.30;99.90;;;;;;5064556;28;20466;-60
2022/03/22 02:13:33;;;;;;;5.30;4.90;;;11.30;99.90;;;;;;5063420;28;20927;-59
2022/03/22 02:16:04;;;;;;;4.83;4.33;;;11.30;99.90;;;;;;5063393;28;20448;-60
2022/03/22 02:18:40;;;;;;;4.13;3.80;;;11.30;99.90;;;;;;5063886;28;20565;-61
2022/03/22 02:21:12;;;;;;;5.20;4.80;;;11.30;99.90;;;;;;5064484;28;20454;-61
2022/03/22 02:23:53;;;;;;;4.17;3.87;;;11.30;99.90;;;;;;5064247;28;20459;-60
2022/03/22 02:26:26;;;;;;;6.63;4.40;;;11.30;99.90;;;;;;5064271;28;20466;-60
2022/03/22 02:28:57;;;;;;;6.07;4.30;;;11.30;99.90;;;;;;5063701;28;20996;-60
2022/03/22 02:31:29;;;;;;;5.60;5.20;;;11.30;99.90;;;;;;5072000;28;20463;-59
2022/03/22 02:34:00;;;;;;;5.43;5.03;;;11.30;99.90;;;;;;5064794;28;20456;-59
2022/03/22 02:36:31;;;;;;;5.20;4.80;;;11.20;99.90;;;;;;5062957;28;20445;-60
2022/03/22 02:39:03;;;;;;;6.03;5.53;;;11.20;99.90;;;;;;5064473;28;20460;-61
2022/03/22 02:41:34;;;;;;;5.50;5.00;;;11.20;99.90;;;;;;5063208;28;20594;-60
2022/03/22 02:44:07;;;;;;;5.10;4.70;;;11.20;99.90;;;;;;5062705;28;20468;-60
2022/03/22 02:46:37;;;;;;;6.03;5.47;;;11.30;99.90;;;;;;5056455;28;20811;-60
2022/03/22 02:49:08;;;;;;;5.07;4.67;;;11.30;99.90;;;;;;5064040;28;20486;-60
2022/03/22 02:51:39;;;;;;;6.03;5.43;;;11.20;99.90;;;;;;5064854;28;20535;-59
2022/03/22 02:54:12;;;;;;;5.67;5.23;;;11.30;99.90;;;;;;5062249;28;20457;-59
2022/03/22 02:56:43;;;;;;;6.30;5.80;;;11.30;99.90;;;;;;5064728;28;20466;-59
2022/03/22 02:59:14;;;;;;;6.90;6.20;;;11.30;99.90;;;;;;5083250;28;20447;-59
2022/03/22 03:01:45;;;;;;;6.67;6.07;;;11.40;99.90;;;;;;5062998;28;20478;-60
2022/03/22 03:04:16;;;;;;;7.70;7.00;;;11.30;99.90;;;;;;5063564;28;20467;-60
2022/03/22 03:06:47;;;;;;;9.37;8.33;;;11.30;99.90;;;;;;5064262;28;20471;-59
2022/03/22 03:09:20;;;;;;;8.53;7.10;;;11.30;99.90;;;;;;5062054;28;20534;-60
2022/03/22 03:11:51;;;;;;;8.77;7.87;;;11.20;99.90;;;;;;5063549;28;20464;-61
2022/03/22 03:14:40;;;;;;;8.50;7.80;;;11.30;99.90;;;;;;5062848;28;20468;-61
2022/03/22 03:17:11;;;;;;;8.00;7.30;;;11.20;99.90;;;;;;5062577;28;20464;-61
2022/03/22 03:19:43;;;;;;;7.57;6.97;;;11.30;99.90;;;;;;5063144;28;20454;-61
2022/03/22 03:22:14;;;;;;;8.60;7.80;;;11.30;99.90;;;;;;5043327;28;20430;-61
2022/03/22 03:24:46;;;;;;;8.97;8.13;;;11.30;99.90;;;;;;5070848;28;20457;-61
2022/03/22 03:27:17;;;;;;;8.57;7.80;;;11.30;99.90;;;;;;5061488;28;20567;-60
2022/03/22 03:29:48;;;;;;;9.87;8.97;;;11.30;99.90;;;;;;5067109;28;20484;-59
2022/03/22 03:32:19;;;;;;;11.37;10.27;;;11.30;99.90;;;;;;5062790;28;20470;-59
2022/03/22 03:34:50;;;;;;;10.73;9.67;;;11.30;99.90;;;;;;5072530;28;20444;-60
2022/03/22 03:37:23;;;;;;;11.50;10.50;;;11.30;99.90;;;;;;5063046;28;20452;-59
2022/03/22 03:39:55;;;;;;;12.07;9.70;;;11.30;99.90;;;;;;5061907;28;20476;-59
2022/03/22 03:42:26;;;;;;;10.50;9.60;;;11.30;99.90;;;;;;5061925;28;20555;-59
2022/03/22 03:47:45;;;;;;;10.10;9.20;;;11.40;99.90;;;;;;5076274;28;20460;-59
2022/03/22 03:50:17;;;;;;;8.63;7.83;;;11.40;99.90;;;;;;5064768;28;20488;-59
2022/03/22 03:52:47;;;;;;;8.80;8.03;;;11.30;99.90;;;;;;5046324;28;20448;-59
2022/03/22 03:55:20;;;;;;;7.93;7.30;;;11.30;99.90;;;;;;5063654;28;20550;-59
2022/03/22 03:57:51;;;;;;;8.47;7.77;;;11.30;99.90;;;;;;5062909;28;20456;-60
2022/03/22 04:00:23;;;;;;;8.33;7.53;;;11.30;99.90;;;;;;5062373;28;20481;-59
2022/03/22 04:02:55;;;;;;;8.57;7.70;;;11.40;99.90;;;;;;5062758;28;20463;-59
2022/03/22 04:05:26;;;;;;;6.00;5.60;;;11.40;99.90;;;;;;5062640;28;20444;-59
2022/03/22 04:07:56;;;;;;;7.33;6.63;;;11.40;99.90;;;;;;5062022;28;20448;-60
2022/03/22 04:10:29;;;;;;;7.17;6.57;;;11.40;99.90;;;;;;5062455;28;20485;-59
2022/03/22 04:13:00;;;;;;;6.43;5.83;;;11.40;99.90;;;;;;5064045;28;20452;-59
2022/03/22 04:15:31;;;;;;;7.80;6.00;;;11.40;99.90;;;;;;5062281;28;20623;-59
2022/03/22 04:18:02;;;;;;;6.50;5.90;;;11.50;99.90;;;;;;5065503;28;20474;-59
2022/03/22 04:20:33;;;;;;;6.70;6.00;;;11.50;99.90;;;;;;5061699;28;20470;-59
2022/03/22 04:23:03;;;;;;;6.43;5.87;;;11.40;99.90;;;;;;5061278;28;20463;-59
2022/03/22 04:25:36;;;;;;;8.23;6.83;;;11.40;99.90;;;;;;5060741;28;20459;-59
2022/03/22 04:33:42;;;;;;;8.23;7.40;;;11.40;99.90;;;;;;5061529;28;20457;-60
2022/03/22 04:36:13;;;;;;;8.53;7.73;;;11.50;99.90;;;;;;5061984;28;20448;-60
2022/03/22 04:38:43;;;;;;;8.27;7.57;;;11.40;99.90;;;;;;5061272;28;20447;-60
2022/03/22 04:41:16;;;;;;;8.07;7.37;;;11.40;99.90;;;;;;5062409;28;21371;-60
2022/03/22 04:43:47;;;;;;;8.50;7.80;;;11.40;99.90;;;;;;5062430;28;20479;-60
2022/03/22 04:46:18;;;;;;;7.90;7.20;;;11.40;99.90;;;;;;5066324;28;20469;-59
2022/03/22 04:48:49;;;;;;;8.50;7.60;;;11.40;99.90;;;;;;5066518;28;20451;-60
2022/03/22 04:57:03;;;;;;;7.40;6.80;;;11.40;99.90;;;;;;5019393;28;20521;-60
2022/03/22 04:59:34;;;;;;;6.23;5.73;;;11.40;99.90;;;;;;5018360;28;20442;-60
2022/03/22 05:02:06;;;;;;;6.17;5.67;;;11.40;99.90;;;;;;5018946;28;20454;-60
2022/03/22 05:04:36;;;;;;;7.07;6.13;;;11.40;99.90;;;;;;5018956;28;20800;-60
2022/03/22 05:07:08;;;;;;;6.33;5.73;;;11.40;99.90;;;;;;5018830;28;20458;-60
2022/03/22 05:09:39;;;;;;;5.93;5.43;;;11.40;99.90;;;;;;5019505;28;20473;-60
2022/03/22 05:12:13;;;;;;;7.17;6.57;;;11.40;99.90;;;;;;5018634;28;20793;-60
2022/03/22 05:14:47;;;;;;;5.63;5.13;;;11.40;99.90;;;;;;5019700;28;20453;-60
2022/03/22 05:17:21;;;;;;;5.70;5.30;;;11.40;99.90;;;;;;5017929;28;20477;-60
2022/03/22 05:19:52;;;;;;;6.53;5.80;;;11.40;99.90;;;;;;5015397;28;20460;-60
2022/03/22 05:22:24;;;;;;;5.00;4.60;;;11.40;99.90;;;;;;5018447;28;20454;-60
2022/03/22 05:24:55;;;;;;;4.93;4.53;;;11.40;99.90;;;;;;5019249;28;20497;-60
2022/03/22 05:27:27;;;;;;;4.67;4.37;;;11.50;99.90;;;;;;5014682;28;20478;-60
2022/03/22 05:29:58;;;;;;;5.10;4.70;;;11.50;99.90;;;;;;5017389;28;20521;-61
2022/03/22 05:32:29;;;;;;;5.33;4.90;;;11.50;99.90;;;;;;5016734;28;20458;-61
2022/03/22 05:35:00;;;;;;;4.97;4.57;;;11.50;99.90;;;;;;5061216;28;20464;-60
2022/03/22 05:37:30;;;;;;;5.07;4.67;;;11.50;99.90;;;;;;5074890;28;20460;-60
2022/03/22 05:40:01;;;;;;;7.60;5.10;;;11.50;99.90;;;;;;5061727;28;20456;-60
2022/03/22 05:42:38;;;;;;;5.67;4.67;;;11.50;99.90;;;;;;5060317;28;20585;-60
2022/03/22 05:45:11;;;;;;;4.70;4.30;;;11.40;99.90;;;;;;5064919;28;20433;-60
2022/03/22 05:47:42;;;;;;;5.13;4.73;;;11.40;99.90;;;;;;5064961;28;20779;-60
2022/03/22 05:50:13;;;;;;;5.07;4.67;;;11.40;99.90;;;;;;5065790;28;20459;-60
2022/03/22 05:52:50;;;;;;;5.30;4.80;;;11.40;99.90;;;;;;5064508;28;20452;-60
2022/03/22 05:55:22;;;;;;;5.40;4.90;;;11.40;99.90;;;;;;5065183;28;20449;-60
2022/03/22 05:57:54;;;;;;;5.70;5.10;;;11.50;99.90;;;;;;5065295;28;20551;-61
2022/03/22 06:00:25;;;;;;;6.10;4.70;;;11.50;99.90;;;;;;5070249;28;20462;-60
2022/03/22 06:02:55;;;;;;;5.70;5.10;;;11.50;99.90;;;;;;5053876;28;20456;-60
2022/03/22 06:05:28;;;;;;;4.53;4.13;;;11.50;99.90;;;;;;5069080;28;20452;-60
2022/03/22 06:08:00;;;;;;;5.37;4.97;;;11.40;99.90;;;;;;5065838;28;20920;-60
2022/03/22 06:10:31;;;;;;;5.50;5.00;;;11.40;99.90;;;;;;5065367;28;20491;-60
2022/03/22 06:13:05;;;;;;;5.90;5.40;;;11.50;99.90;;;;;;5058903;28;20452;-61
2022/03/22 06:15:36;;;;;;;5.40;4.90;;;11.40;99.90;;;;;;5071331;28;20450;-60
2022/03/22 06:18:09;;;;;;;4.30;4.00;;;11.40;99.90;;;;;;5068046;28;20486;-60
2022/03/22 06:20:41;;;;;;;5.00;4.60;;;11.50;99.90;;;;;;5066103;28;20452;-60
2022/03/22 06:23:14;;;;;;;5.30;4.80;;;11.50;99.90;;;;;;5071496;28;20463;-60
2022/03/22 06:25:45;;;;;;;4.53;4.13;;;11.50;99.90;;;;;;5067576;28;20474;-60
2022/03/22 06:28:18;;;;;;;4.80;4.40;;;11.50;99.90;;;;;;5058580;28;20480;-59
2022/03/22 06:30:49;;;;;;;4.87;4.37;;;11.50;99.90;;;;;;5064886;28;20877;-60
2022/03/22 06:33:22;;;;;;;5.13;4.70;;;11.40;99.90;;;;;;5064517;28;20467;-60
2022/03/22 06:35:54;;;;;;;4.23;3.93;;;11.40;99.90;;;;;;5069986;28;20459;-60
2022/03/22 06:38:25;;;;;;;7.50;5.00;;;11.40;99.90;;;;;;5067682;28;20580;-60
2022/03/22 06:40:56;;;;;;;5.10;4.67;;;11.40;99.90;;;;;;5063794;28;20459;-60
2022/03/22 06:43:28;;;;;;;5.20;4.70;;;11.40;99.90;;;;;;5063353;28;20540;-59
2022/03/22 06:45:59;;;;;;;4.73;4.13;;;11.40;99.90;;;;;;5061508;28;20447;-60
2022/03/22 06:48:30;;;;;;;4.47;3.87;;;11.40;99.90;;;;;;5061160;28;20456;-60
2022/03/22 06:51:00;;;;;;;4.20;3.70;;;11.50;99.90;;;;;;5063983;28;20948;-60
2022/03/22 06:53:31;;;;;;;4.20;3.80;;;11.50;99.90;;;;;;5063821;28;20457;-60
2022/03/22 06:56:03;;;;;;;5.80;4.13;;;11.50;99.90;;;;;;5064780;28;20440;-60
2022/03/22 06:58:35;;;;;;;3.53;3.33;;;11.50;99.90;;;;;;5063674;28;20449;-61
2022/03/22 07:01:06;;;;;;;4.37;3.70;;;11.50;99.90;;;;;;5065042;28;20836;-60
2022/03/22 07:03:37;;;;;;;4.17;3.67;;;11.50;99.90;;;;;;5063955;28;20478;-60
2022/03/22 07:06:08;;;;;;;7.50;4.03;;;11.60;99.90;;;;;;5064296;28;20931;-60
2022/03/22 07:08:39;;;;;;;3.90;3.57;;;11.50;99.90;;;;;;5065152;28;20451;-60
2022/03/22 07:14:00;;;;;;;3.80;3.50;;;11.50;99.90;;;;;;5062605;28;21972;-60
2022/03/22 07:16:30;;;;;;;3.70;3.40;;;11.60;99.90;;;;;;5067278;28;20439;-60
2022/03/22 07:19:01;;;;;;;3.93;3.47;;;11.50;99.90;;;;;;5055650;28;20530;-60
2022/03/22 07:21:32;;;;;;;6.17;3.63;;;11.60;99.90;;;;;;5068710;28;20444;-60
2022/03/22 07:24:03;;;;;;;3.37;3.13;;;11.60;99.90;;;;;;5063416;28;20456;-60
2022/03/22 07:26:34;;;;;;;4.60;3.00;;;11.60;99.90;;;;;;5067389;28;20467;-60
2022/03/22 07:29:09;;;;;;;3.53;3.33;;;11.60;99.90;;;;;;5062242;28;20456;-60
2022/03/22 07:31:40;;;;;;;4.07;3.33;;;11.60;99.90;;;;;;5074667;28;20493;-60
2022/03/22 07:34:14;;;;;;;4.07;3.20;;;11.60;99.90;;;;;;5067543;28;20528;-60
2022/03/22 07:36:46;;;;;;;4.37;3.60;;;11.60;99.90;;;;;;5058462;28;20452;-60
2022/03/22 07:39:21;;;;;;;4.10;2.97;;;11.60;99.90;;;;;;5063621;28;20586;-60
2022/03/22 07:41:53;;;;;;;4.30;3.00;;;11.50;99.90;;;;;;5061245;28;20462;-59
2022/03/22 07:44:27;;;;;;;3.10;2.90;;;11.60;99.90;;;;;;5065749;28;20464;-60
2022/03/22 07:46:59;;;;;;;3.53;3.23;;;11.60;99.90;;;;;;5063215;28;20792;-61
2022/03/22 07:55:05;;;;;;;5.00;3.10;;;11.60;99.90;;;;;;5062200;28;20452;-60
2022/03/22 07:57:36;;;;;;;3.10;2.80;;;11.60;99.90;;;;;;5066539;28;20452;-60
2022/03/22 08:00:10;;;;;;;3.23;2.93;;;11.50;99.90;;;;;;5062782;28;20448;-59
2022/03/22 08:02:51;;;;;;;3.10;2.83;;;11.50;99.90;;;;;;5079710;28;20520;-60
2022/03/22 08:05:22;;;;;;;3.93;2.70;;;11.60;99.90;;;;;;5071877;28;20501;-60
2022/03/22 08:07:53;;;;;;;2.73;2.50;;;11.60;99.90;;;;;;5066182;28;20440;-60
2022/03/22 08:10:47;;;;;;;3.13;2.93;;;11.60;99.90;;;;;;5064850;28;20452;-60
2022/03/22 08:13:18;;;;;;;2.93;2.73;;;11.60;99.90;;;;;;5055385;28;20480;-60
2022/03/22 08:15:51;;;;;;;2.63;2.43;;;11.60;99.90;;;;;;5062558;28;20452;-60
2022/03/22 08:18:22;;;;;;;3.80;3.10;;;11.60;99.90;;;;;;5061286;28;20559;-60
2022/03/22 08:20:52;;;;;;;3.80;2.40;;;11.60;99.90;;;;;;5049715;28;20555;-60
2022/03/22 08:23:23;;;;;;;2.73;2.17;;;11.60;99.90;;;;;;5062033;28;20467;-60
2022/03/22 08:25:54;;;;;;;2.90;2.70;;;11.60;99.90;;;;;;5064143;28;21118;-60
2022/03/22 08:28:25;;;;;;;2.30;2.17;;;11.60;99.90;;;;;;5063947;28;20462;-60
2022/03/22 08:30:57;;;;;;;4.50;3.17;;;11.60;99.90;;;;;;5061641;28;20471;-60
2022/03/22 08:33:28;;;;;;;3.10;2.80;;;11.60;99.90;;;;;;5061984;28;20484;-60
2022/03/22 08:35:59;;;;;;;2.80;2.60;;;11.60;99.90;;;;;;5061541;28;20433;-61
2022/03/22 08:38:30;;;;;;;1.87;1.77;;;11.60;99.90;;;;;;5061815;28;20447;-60
2022/03/22 08:41:01;;;;;;;2.10;1.90;;;11.60;99.90;;;;;;5062093;28;20499;-60
2022/03/22 08:43:32;;;;;;;2.13;2.00;;;11.60;99.90;;;;;;5062237;28;20452;-60
2022/03/22 08:46:06;;;;;;;4.80;2.30;;;11.60;99.90;;;;;;5062417;28;20466;-60
2022/03/22 08:48:37;;;;;;;2.20;2.00;;;11.60;99.90;;;;;;5061681;28;20532;-60
2022/03/22 08:51:08;;;;;;;5.10;2.00;;;11.60;99.90;;;;;;5072716;28;20470;-60
2022/03/22 08:53:39;;;;;;;1.90;1.80;;;11.60;99.90;;;;;;5061884;28;20471;-60
2022/03/22 08:56:10;;;;;;;2.33;2.13;;;11.60;99.90;;;;;;5064937;28;20464;-60
2022/03/22 08:58:40;;;;;;;1.97;1.80;;;11.70;99.90;;;;;;5061656;28;20569;-60
2022/03/22 09:01:13;;;;;;;2.40;2.20;;;11.70;99.90;;;;;;5059359;28;20449;-60
2022/03/22 09:06:07;;;;;;;2.17;1.97;;;11.70;99.90;;;;;;5058532;28;20440;-60
2022/03/22 09:06:37;;;;;;;3.47;2.20;;;11.70;99.90;;;;;;5063314;28;20464;-61
2022/03/22 09:09:10;;;;;;;1.90;1.80;;;11.70;99.90;;;;;;5057814;28;20448;-60
2022/03/22 09:11:41;;;;;;;1.67;1.57;;;11.70;99.90;;;;;;5065264;28;20536;-60
2022/03/22 09:14:11;;;;;;;2.33;1.93;;;11.70;99.90;;;;;;5061791;28;20453;-60
2022/03/22 09:16:44;;;;;;;1.77;1.67;;;11.70;99.90;;;;;;5063483;28;20460;-60
2022/03/22 09:19:15;;;;;;;2.20;2.10;;;11.60;99.90;;;;;;5065853;28;20507;-60
2022/03/22 09:21:46;;;;;;;1.47;1.37;;;11.60;99.90;;;;;;5065283;28;20444;-60
2022/03/22 09:24:17;;;;;;;2.70;2.20;;;11.70;99.90;;;;;;5065940;28;20432;-60
2022/03/22 09:26:47;;;;;;;2.00;1.90;;;11.60;99.90;;;;;;5066134;28;20479;-60
2022/03/22 09:29:18;;;;;;;2.93;2.47;;;11.60;99.90;;;;;;5066002;28;20978;-60
2022/03/22 09:31:51;;;;;;;2.73;2.53;;;11.70;99.90;;;;;;5065652;28;20441;-60
2022/03/22 09:34:22;;;;;;;3.40;3.10;;;11.70;99.90;;;;;;5066721;28;20456;-60
2022/03/22 09:36:52;;;;;;;4.20;3.80;;;11.70;99.90;;;;;;5066441;28;20436;-60
2022/03/22 09:39:24;;;;;;;5.60;4.37;;;11.60;99.90;;;;;;5066268;28;20523;-60
2022/03/22 09:41:56;;;;;;;4.40;4.00;;;11.60;99.90;;;;;;5066598;28;20444;-60
2022/03/22 09:44:29;;;;;;;5.70;5.20;;;11.60;99.90;;;;;;5065090;28;20859;-60
2022/03/22 09:47:05;;;;;;;5.10;4.70;;;11.60;99.90;;;;;;5066568;28;20449;-60
2022/03/22 09:49:37;;;;;;;5.07;4.67;;;11.60;99.90;;;;;;5066408;28;20467;-60
2022/03/22 09:52:10;;;;;;;5.83;5.27;;;11.60;99.90;;;;;;5064971;28;20835;-60
2022/03/22 09:54:42;;;;;;;6.00;5.23;;;11.60;99.90;;;;;;5065770;28;20448;-60
2022/03/22 09:57:12;;;;;;;5.27;4.77;;;11.60;99.90;;;;;;5064535;28;20476;-60
2022/03/22 09:59:43;;;;;;;4.33;3.90;;;11.60;99.90;;;;;;5065177;28;20460;-60
2022/03/22 10:02:16;;;;;;;5.67;4.70;;;11.60;99.90;;;;;;5066958;28;20452;-60
2022/03/22 10:04:49;;;;;;;4.93;4.53;;;11.60;99.90;;;;;;5066498;28;20501;-60
2022/03/22 10:07:21;;;;;;;5.13;4.70;;;11.50;99.90;;;;;;5065697;28;20522;-60
2022/03/22 10:09:54;;;;;;;4.83;4.43;;;11.50;99.90;;;;;;5066507;28;20443;-60
2022/03/22 10:12:29;;;;;;;5.10;4.60;;;11.50;99.90;;;;;;5063210;28;20572;-60
2022/03/22 10:15:10;;;;;;;4.27;3.90;;;11.50;99.90;;;;;;5065258;28;20451;-60
2022/03/22 10:17:44;;;;;;;5.60;5.00;;;11.50;99.90;;;;;;5068584;28;20479;-60
2022/03/22 10:20:24;;;;;;;3.73;3.43;;;11.60;99.90;;;;;;5068554;28;20448;-60
2022/03/22 10:22:58;;;;;;;3.97;3.67;;;11.50;99.90;;;;;;5064933;28;20448;-60
2022/03/22 10:25:30;;;;;;;3.43;2.87;;;11.50;99.90;;;;;;5073217;28;20466;-60
2022/03/22 10:28:06;;;;;;;4.17;3.77;;;11.50;99.90;;;;;;5065079;28;20508;-61
2022/03/22 10:30:38;;;;;;;4.20;3.53;;;11.50;99.90;;;;;;5066706;28;20452;-61
2022/03/22 10:33:12;;;;;;;3.57;3.23;;;11.50;99.90;;;;;;5064118;28;20491;-60
2022/03/22 10:35:49;;;;;;;3.50;3.20;;;11.50;99.90;;;;;;5065723;28;20449;-60
2022/03/22 10:38:23;;;;;;;2.90;2.70;;;11.40;99.90;;;;;;5063865;28;20447;-60
2022/03/22 10:40:54;;;;;;;3.00;2.80;;;11.50;99.90;;;;;;5068018;28;20441;-61
2022/03/22 10:43:26;;;;;;;3.17;2.80;;;11.40;99.90;;;;;;5053524;28;20471;-60
2022/03/22 10:46:00;;;;;;;2.67;2.47;;;11.50;99.90;;;;;;5065180;28;20453;-61
2022/03/22 10:48:37;;;;;;;2.13;1.97;;;11.50;99.90;;;;;;5067810;28;20453;-60
2022/03/22 10:51:08;;;;;;;2.80;2.60;;;11.40;99.90;;;;;;5076740;28;20448;-60
2022/03/22 10:53:39;;;;;;;5.70;2.33;;;11.40;99.90;;;;;;5057562;28;20510;-60
2022/03/22 10:56:11;;;;;;;2.80;2.60;;;11.40;99.90;;;;;;5076752;28;20432;-61
2022/03/22 10:58:43;;;;;;;2.43;2.17;;;11.40;99.90;;;;;;5070880;28;20455;-61
2022/03/22 11:01:20;;;;;;;3.90;2.90;;;11.40;99.90;;;;;;5063503;28;20452;-61
2022/03/22 11:03:58;;;;;;;2.40;2.20;;;11.40;99.90;;;;;;5062827;28;20909;-60
2022/03/22 11:06:31;;;;;;;2.63;2.43;;;11.30;99.90;;;;;;5060183;28;20460;-60
2022/03/22 11:09:03;;;;;;;2.30;2.10;;;11.40;99.90;;;;;;5063681;28;20453;-61
2022/03/22 11:11:35;;;;;;;2.00;1.90;;;11.40;99.90;;;;;;5064854;28;20461;-61
2022/03/22 11:14:05;;;;;;;1.70;1.60;;;11.30;99.90;;;;;;5062375;28;20552;-60
2022/03/22 11:16:37;;;;;;;2.77;2.17;;;11.40;99.90;;;;;;5073996;28;20551;-60
2022/03/22 11:19:12;;;;;;;2.40;1.77;;;11.40;99.90;;;;;;5067031;28;20494;-61
2022/03/22 11:21:43;;;;;;;2.73;2.00;;;11.40;99.90;;;;;;5066744;28;20535;-61
2022/03/22 11:24:15;;;;;;;2.47;1.97;;;11.40;99.90;;;;;;5074793;28;20468;-61
2022/03/22 11:26:48;;;;;;;2.33;1.63;;;11.40;99.90;;;;;;5063063;28;20452;-60
2022/03/22 11:29:19;;;;;;;1.63;1.53;;;11.30;99.90;;;;;;5063172;28;20458;-60
2022/03/22 11:34:36;;;;;;;1.63;1.53;;;11.40;99.90;;;;;;5063018;28;20496;-61
2022/03/22 11:37:11;;;;;;;1.27;1.17;;;11.40;99.90;;;;;;5064627;28;20452;-61
2022/03/22 11:42:37;;;;;;;1.60;1.50;;;11.40;99.90;;;;;;5023278;28;20466;-60
2022/03/22 11:45:13;;;;;;;2.87;1.63;;;11.40;99.90;;;;;;5068616;28;20460;-61
2022/03/22 11:47:49;;;;;;;1.43;1.33;;;11.30;99.90;;;;;;5064260;28;20523;-61
2022/03/22 11:50:23;;;;;;;1.50;1.40;;;11.30;99.90;;;;;;5063613;28;20483;-61
2022/03/22 11:53:01;;;;;;;2.33;1.50;;;11.40;99.90;;;;;;5055442;28;21228;-60
2022/03/22 11:55:32;;;;;;;1.80;1.60;;;11.30;99.90;;;;;;5063044;28;20559;-61
2022/03/22 11:58:09;;;;;;;2.10;1.80;;;11.30;99.90;;;;;;5061484;28;20531;-60
2022/03/22 12:00:44;;;;;;;2.37;2.17;;;11.40;99.90;;;;;;5070445;28;20451;-61
2022/03/22 12:03:18;;;;;;;1.70;1.60;;;11.40;99.90;;;;;;5062502;28;20458;-61
2022/03/22 12:05:53;;;;;;;2.20;2.00;;;11.30;99.90;;;;;;5064041;28;20444;-61
2022/03/22 12:08:26;;;;;;;1.73;1.63;;;11.30;99.90;;;;;;5064138;28;20760;-60
2022/03/22 12:10:59;;;;;;;2.10;1.90;;;11.30;99.90;;;;;;5064835;28;20566;-61
2022/03/22 12:13:30;;;;;;;1.90;1.67;;;11.30;99.90;;;;;;5061049;28;20516;-60
2022/03/22 12:16:05;;;;;;;1.97;1.87;;;11.30;99.90;;;;;;5056870;28;20452;-61
2022/03/22 12:18:36;;;;;;;1.90;1.80;;;11.30;99.90;;;;;;5063965;28;20560;-61
2022/03/22 12:21:19;;;;;;;2.20;2.00;;;11.40;99.90;;;;;;5074180;28;20435;-61
2022/03/22 12:23:50;;;;;;;3.13;1.87;;;11.30;99.90;;;;;;5064732;28;20456;-61
2022/03/22 12:26:21;;;;;;;2.20;2.10;;;11.30;99.90;;;;;;5062868;28;20495;-61
2022/03/22 12:28:54;;;;;;;1.90;1.80;;;11.30;99.90;;;;;;5061601;28;20452;-60
2022/03/22 12:31:25;;;;;;;2.33;2.23;;;11.40;99.90;;;;;;5062423;28;20456;-60
2022/03/22 12:33:59;;;;;;;2.10;1.90;;;11.40;99.90;;;;;;5061198;28;20978;-60
2022/03/22 12:36:31;;;;;;;2.37;2.17;;;11.40;99.90;;;;;;5062274;28;20441;-59
2022/03/22 12:39:02;;;;;;;3.10;2.30;;;11.40;99.90;;;;;;5062703;28;20466;-60
2022/03/22 12:41:33;;;;;;;2.53;2.30;;;11.40;99.90;;;;;;5061607;28;20459;-61
2022/03/22 12:44:04;;;;;;;3.70;2.60;;;11.40;99.90;;;;;;5062530;28;20456;-60
2022/03/22 12:46:36;;;;;;;5.07;2.50;;;11.40;99.90;;;;;;5062060;28;20924;-61
2022/03/22 12:49:07;;;;;;;3.43;2.50;;;11.40;99.90;;;;;;5061585;28;20444;-60
2022/03/22 12:51:41;;;;;;;2.83;2.63;;;11.30;99.90;;;;;;5061332;28;20554;-61
2022/03/22 12:54:16;;;;;;;3.03;2.73;;;11.30;99.90;;;;;;5060561;28;20515;-61
2022/03/22 12:56:48;;;;;;;3.70;2.67;;;11.30;99.90;;;;;;5075860;28;20475;-61
2022/03/22 12:59:26;;;;;;;3.03;2.80;;;11.30;99.90;;;;;;5064889;28;20928;-60
2022/03/22 13:01:58;;;;;;;2.60;2.40;;;11.30;99.90;;;;;;5053396;28;20960;-60
2022/03/22 13:04:31;;;;;;;4.40;2.53;;;11.30;99.90;;;;;;5061083;28;20786;-61
2022/03/22 13:07:08;;;;;;;2.70;2.40;;;11.30;99.90;;;;;;5063260;28;21266;-61
2022/03/22 13:12:26;;;;;;;2.40;2.13;;;11.30;99.90;;;;;;5060603;28;20444;-61
2022/03/22 13:15:07;;;;;;;2.13;1.93;;;11.50;99.90;;;;;;5061489;28;20480;-60
2022/03/22 13:17:45;;;;;;;6.43;2.03;;;11.50;99.90;;;;;;5058263;28;20479;-61
2022/03/22 13:20:21;;;;;;;2.20;2.00;;;11.50;99.90;;;;;;5061749;28;20517;-60
2022/03/22 13:22:58;;;;;;;2.50;2.10;;;11.50;99.90;;;;;;5061533;28;20453;-60
2022/03/22 13:25:30;;;;;;;2.23;1.50;;;11.50;99.90;;;;;;5060829;28;20455;-61
2022/03/22 13:28:02;;;;;;;2.00;1.80;;;11.50;99.90;;;;;;5056086;28;20923;-60
2022/03/22 13:30:34;;;;;;;2.13;1.60;;;11.60;99.90;;;;;;5064330;28;20791;-59
2022/03/22 13:33:13;;;;;;;1.60;1.50;;;11.50;99.90;;;;;;5060990;28;20463;-59
2022/03/22 13:35:54;;;;;;;1.50;1.33;;;11.50;99.90;;;;;;5061331;28;20492;-59
2022/03/22 13:38:27;;;;;;;1.77;1.67;;;11.50;99.90;;;;;;5060233;28;20997;-59
2022/03/22 13:41:03;;;;;;;1.93;1.80;;;11.50;99.90;;;;;;5061503;28;20531;-58
2022/03/22 13:43:44;;;;;;;2.37;1.57;;;11.40;99.90;;;;;;5059396;28;20441;-59
2022/03/22 13:46:15;;;;;;;1.90;1.80;;;11.50;99.90;;;;;;5061042;28;20791;-59
2022/03/22 13:48:51;;;;;;;2.53;2.43;;;11.50;99.90;;;;;;5060859;28;20457;-59